Watts, OK (74964)

6:19 PM CST on December 19, 2014 (GMT -0600)
Smith | Change Station
CLOSE
Current Station
Airport
Location: Siloam Springs,
Elevation: 1191 ft
Nearby Weather Stations

Elev 1191 ft 36.19 °N, 94.49 °W | Updated 4 minutes ago

Overcast
Overcast
41 °F
Feels Like 39 °F
N
4
Wind Variable Wind from NNW

Today
High -- | Low -- °F
--% Chance of Precip.
Yesterday
High -- | Low -- °F
Precip. -- in
7:24 AM 5:06 PM
Waning Crescent, 5% visible
Pressure 30.20 in
Visibility 4.0 miles
Clouds Overcast 600 ft
Windchill 39 °F
Dew Point 36 °F
Humidity 81%
Rainfall 0.00 in
Snow Depth Not available.
UV 0 out of 12
Pollen 5.40 out of 12
Air Quality Not available.
Flu Activity Not available.
METAR KSLG 200015Z AUTO 34003KT 4SM OVC006 05/02 A3020 RMK AO1

More Conditions Fewer Conditions

Pressure 30.20 in
Visibility 4.0 miles
Clouds Overcast 600 ft
Windchill 39 °F
Dew Point 36 °F
Humidity 81%
Rainfall 0.00 in
Snow Depth Not available.
UV 0 out of 12
Pollen 5.40 out of 12
Air Quality Not available.
Flu Activity Not available.
METAR KSLG 200015Z AUTO 34003KT 4SM OVC006 05/02 A3020 RMK AO1

More Conditions Fewer Conditions

10-Day Weather Forecast

Almanac

Astronomy

Dec. 19, 2014 Rise Set
Actual Time
Civil Twilight
Nautical Twilight
Astronomical Twilight
Moon
Length of Visible Light
Length of Day
Tomorrow will be .
, % of the Moon is Illuminated

Today's Extremes

State Highs State Lows

Community

WunderPhotos

Upload Photos

1,779,084 photos uploaded!

WunderBlogs® & News

Nearby

Air Quality

  Air Quality AQ Index Pollutant
Not available.

Snow Depth

Station Depth Elevation

Earthquake Activity

City Distance Mag. Time & Date
Minimum magnitude displayed is 2.5.

Coastal Water Temperatures

Place Temperature

Nearby Weather Stations